Time;durP1;ratioP1;P1;durP2;ratioP2;P2;SDS_P1;SDS_P2;PMS_P1;PMS_P2;Temp;Humidity;BMP_temperature;BMP_pressure;BME280_temperature;BME280_humidity;BME280_pressure;Samples;Min_cycle;Max_cycle;Signal;HPM_P1;HPM_P2
2023/05/18 00:02:25;;;;;;;1.37;0.50;;;11.10;98.20;;;;;;5035907;28;20169;-82
2023/05/18 00:04:51;;;;;;;0.70;0.70;;;11.00;98.20;;;;;;5040510;28;20647;-84
2023/05/18 00:07:17;;;;;;;0.70;0.70;;;11.10;98.20;;;;;;5041579;28;20181;-81
2023/05/18 00:09:43;;;;;;;0.60;0.60;;;11.00;98.30;;;;;;5036013;28;20224;-83
2023/05/18 00:12:09;;;;;;;0.63;0.63;;;11.00;98.40;;;;;;5035255;28;20559;-82
2023/05/18 00:14:35;;;;;;;0.40;0.40;;;11.00;98.40;;;;;;5035354;28;20201;-82
2023/05/18 00:17:01;;;;;;;1.27;0.70;;;11.00;98.30;;;;;;5034424;28;20207;-80
2023/05/18 00:19:28;;;;;;;0.80;0.80;;;11.00;98.30;;;;;;5034899;28;20180;-84
2023/05/18 00:21:54;;;;;;;0.63;0.60;;;11.00;98.30;;;;;;5034948;28;20535;-83
2023/05/18 00:24:21;;;;;;;0.63;0.63;;;11.00;98.40;;;;;;5034784;28;20180;-83
2023/05/18 00:26:48;;;;;;;0.63;0.63;;;11.00;98.30;;;;;;5034415;28;20184;-80
2023/05/18 00:29:14;;;;;;;0.60;0.60;;;11.00;98.40;;;;;;5034568;28;20173;-80
2023/05/18 00:31:41;;;;;;;0.70;0.70;;;11.00;98.30;;;;;;5035717;28;20165;-81
2023/05/18 00:34:11;;;;;;;0.60;0.60;;;10.90;98.20;;;;;;5034630;28;20267;-82
2023/05/18 00:36:38;;;;;;;0.67;0.67;;;11.00;98.50;;;;;;5034202;28;20208;-82
2023/05/18 00:39:05;;;;;;;0.60;0.60;;;10.90;98.20;;;;;;5034978;28;20623;-82
2023/05/18 00:41:31;;;;;;;3.20;0.90;;;11.00;98.40;;;;;;5034611;28;20209;-82
2023/05/18 00:43:57;;;;;;;0.70;0.67;;;10.90;98.40;;;;;;5034786;28;20509;-82
2023/05/18 00:46:25;;;;;;;0.63;0.63;;;11.00;98.60;;;;;;5034775;28;20181;-84
2023/05/18 00:48:52;;;;;;;0.73;0.70;;;11.00;98.40;;;;;;5035041;28;20205;-81
2023/05/18 00:51:20;;;;;;;0.87;0.87;;;11.00;98.30;;;;;;5033129;28;20184;-83
2023/05/18 00:53:46;;;;;;;0.70;0.70;;;10.90;98.40;;;;;;5036587;28;20180;-84
2023/05/18 00:56:12;;;;;;;0.80;0.80;;;10.90;98.30;;;;;;5035979;28;20202;-84
2023/05/18 00:58:38;;;;;;;0.83;0.83;;;10.90;98.50;;;;;;5045482;28;20190;-83
2023/05/18 01:01:04;;;;;;;0.73;0.73;;;10.90;98.40;;;;;;5049229;28;20220;-81
2023/05/18 01:03:33;;;;;;;0.80;0.80;;;10.90;98.60;;;;;;5044858;28;20187;-79
2023/05/18 01:05:59;;;;;;;0.67;0.67;;;11.00;98.60;;;;;;5035587;28;20190;-80
2023/05/18 01:08:26;;;;;;;0.80;0.80;;;10.90;98.40;;;;;;5034006;28;20289;-82
2023/05/18 01:11:23;;;;;;;0.90;0.90;;;10.90;98.40;;;;;;5034447;28;20201;-82
2023/05/18 01:13:54;;;;;;;0.77;0.77;;;10.90;98.50;;;;;;5031458;28;20656;-83
2023/05/18 01:16:26;;;;;;;0.77;0.77;;;10.90;98.30;;;;;;5033957;28;20349;-80
2023/05/18 01:19:06;;;;;;;0.60;0.60;;;10.90;98.50;;;;;;5028490;28;20193;-82
2023/05/18 01:22:07;;;;;;;0.97;0.97;;;10.90;98.50;;;;;;5038948;28;20298;-84
2023/05/18 01:24:47;;;;;;;0.80;0.80;;;10.90;98.60;;;;;;5035707;28;20173;-81
2023/05/18 01:27:18;;;;;;;0.90;0.90;;;10.90;98.60;;;;;;5035565;28;20685;-82
2023/05/18 01:29:48;;;;;;;0.80;0.80;;;10.90;98.50;;;;;;5035043;28;20489;-82
2023/05/18 01:32:20;;;;;;;0.83;0.83;;;10.90;98.40;;;;;;5039374;28;20180;-80
2023/05/18 01:34:46;;;;;;;0.90;0.90;;;10.90;98.60;;;;;;5035074;28;20251;-80
2023/05/18 01:37:12;;;;;;;0.90;0.90;;;10.90;98.60;;;;;;5035805;28;20187;-82
2023/05/18 01:39:39;;;;;;;1.07;1.07;;;10.90;98.60;;;;;;5034216;28;20682;-82
2023/05/18 01:42:14;;;;;;;0.80;0.80;;;10.90;98.70;;;;;;5033987;28;20240;-83
2023/05/18 01:44:47;;;;;;;0.80;0.80;;;10.90;98.80;;;;;;5034152;28;20176;-82
2023/05/18 01:47:14;;;;;;;1.00;1.00;;;10.80;98.60;;;;;;5033892;28;20506;-81
2023/05/18 01:50:01;;;;;;;1.00;1.00;;;10.80;98.70;;;;;;5033738;28;20166;-83
2023/05/18 01:52:47;;;;;;;0.80;0.80;;;10.80;98.60;;;;;;5034409;28;20533;-83
2023/05/18 01:55:15;;;;;;;1.10;1.10;;;10.80;98.70;;;;;;5031933;28;20169;-82
2023/05/18 01:57:45;;;;;;;1.03;1.03;;;10.80;98.70;;;;;;5033992;28;20183;-80
2023/05/18 02:00:12;;;;;;;1.00;1.00;;;10.80;98.80;;;;;;5037585;28;20391;-83
2023/05/18 02:02:37;;;;;;;1.20;1.20;;;10.80;98.80;;;;;;5035098;28;20168;-80
2023/05/18 02:05:04;;;;;;;0.80;0.80;;;10.80;98.90;;;;;;5034142;28;20238;-81
2023/05/18 02:07:30;;;;;;;1.83;1.10;;;10.80;98.90;;;;;;5033902;28;20169;-82
2023/05/18 02:09:56;;;;;;;1.00;1.00;;;10.80;98.90;;;;;;5034453;28;20997;-83
2023/05/18 02:12:21;;;;;;;1.20;1.20;;;10.80;98.80;;;;;;5032306;28;20642;-81
2023/05/18 02:14:47;;;;;;;1.00;1.00;;;10.80;99.00;;;;;;5033995;28;20186;-81
2023/05/18 02:17:13;;;;;;;1.27;1.27;;;10.80;98.90;;;;;;5033715;28;20653;-81
2023/05/18 02:19:41;;;;;;;1.10;1.10;;;10.80;99.00;;;;;;5034116;28;20313;-79
2023/05/18 02:22:07;;;;;;;1.00;1.00;;;10.80;99.00;;;;;;5039535;28;20184;-77
2023/05/18 02:24:33;;;;;;;1.07;1.07;;;10.70;99.00;;;;;;5050594;28;20181;-80
2023/05/18 02:27:00;;;;;;;1.00;1.00;;;10.80;99.10;;;;;;5056571;28;20229;-80
2023/05/18 02:29:26;;;;;;;1.50;1.40;;;10.80;99.00;;;;;;5041129;28;20165;-82
2023/05/18 02:31:52;;;;;;;1.13;1.13;;;10.80;99.20;;;;;;5040103;28;20182;-82
2023/05/18 02:34:18;;;;;;;1.10;1.10;;;10.80;99.10;;;;;;5040191;28;20173;-82
2023/05/18 02:36:44;;;;;;;1.40;1.30;;;10.80;99.10;;;;;;5041663;28;20173;-80
2023/05/18 02:39:11;;;;;;;2.03;1.20;;;10.70;99.10;;;;;;5052321;28;20169;-82
2023/05/18 02:41:37;;;;;;;1.30;1.30;;;10.70;99.20;;;;;;5041686;28;20371;-83
2023/05/18 02:44:04;;;;;;;1.03;1.03;;;10.70;99.30;;;;;;5040095;28;20207;-82
2023/05/18 02:46:30;;;;;;;1.40;1.33;;;10.70;99.20;;;;;;5038195;28;20650;-83
2023/05/18 02:48:56;;;;;;;1.40;1.40;;;10.70;99.30;;;;;;5039220;28;20181;-82
2023/05/18 02:51:23;;;;;;;2.93;1.50;;;10.70;99.40;;;;;;5039124;28;20261;-83
2023/05/18 02:53:50;;;;;;;1.80;1.70;;;10.70;99.50;;;;;;5042774;28;20180;-81
2023/05/18 02:56:16;;;;;;;1.57;1.27;;;10.60;99.50;;;;;;5049844;28;20177;-82
2023/05/18 02:58:42;;;;;;;1.60;1.50;;;10.60;99.50;;;;;;5042151;28;20171;-84
2023/05/18 03:01:10;;;;;;;1.73;1.37;;;10.60;99.60;;;;;;5040804;28;20254;-81
2023/05/18 03:03:37;;;;;;;1.20;1.20;;;10.60;99.60;;;;;;5038683;28;20647;-83
2023/05/18 03:06:04;;;;;;;1.33;1.33;;;10.60;99.60;;;;;;5041609;28;20187;-82
2023/05/18 03:08:31;;;;;;;1.80;1.70;;;10.60;99.70;;;;;;5044446;28;20285;-83
2023/05/18 03:10:57;;;;;;;2.30;1.70;;;10.60;99.80;;;;;;5039416;28;20659;-84
2023/05/18 03:13:23;;;;;;;1.80;1.70;;;10.60;99.80;;;;;;5041388;28;20180;-83
2023/05/18 03:15:50;;;;;;;1.90;1.80;;;10.60;99.80;;;;;;5040252;28;20208;-85
2023/05/18 03:18:19;;;;;;;1.37;1.37;;;10.60;99.90;;;;;;5039791;28;20176;-81
2023/05/18 03:20:45;;;;;;;2.30;1.60;;;10.60;99.90;;;;;;5039164;28;20748;-83
2023/05/18 03:23:12;;;;;;;1.60;1.50;;;10.60;99.90;;;;;;5038326;28;20269;-82
2023/05/18 03:25:37;;;;;;;2.03;1.40;;;10.60;99.90;;;;;;5039224;28;20179;-81
2023/05/18 03:28:04;;;;;;;1.60;1.60;;;10.60;99.90;;;;;;5039680;28;20606;-83
2023/05/18 03:30:33;;;;;;;2.00;1.90;;;10.50;99.90;;;;;;5039072;28;20218;-79
2023/05/18 03:33:00;;;;;;;1.30;1.30;;;10.50;99.90;;;;;;5039588;28;20244;-79
2023/05/18 03:35:26;;;;;;;1.93;1.67;;;10.50;99.90;;;;;;5039607;28;20625;-80
2023/05/18 03:37:52;;;;;;;4.70;1.60;;;10.50;99.90;;;;;;5035856;28;20195;-81
2023/05/18 03:40:19;;;;;;;1.50;1.50;;;10.60;99.90;;;;;;5037368;28;20232;-84
2023/05/18 03:42:44;;;;;;;2.07;1.90;;;10.60;99.90;;;;;;5037950;28;20173;-82
2023/05/18 03:45:11;;;;;;;2.63;1.67;;;10.60;99.90;;;;;;5037037;28;20180;-82
2023/05/18 03:47:38;;;;;;;1.87;1.77;;;10.50;99.90;;;;;;5046220;28;20189;-80
2023/05/18 03:50:05;;;;;;;1.70;1.60;;;10.50;99.90;;;;;;5048339;28;20205;-79
2023/05/18 03:52:32;;;;;;;1.50;1.50;;;10.50;99.90;;;;;;5044164;28;20191;-81
2023/05/18 03:55:02;;;;;;;1.33;1.33;;;10.50;99.90;;;;;;5046053;28;20191;-82
2023/05/18 03:57:28;;;;;;;1.57;1.43;;;10.50;99.90;;;;;;5036047;28;20173;-81
2023/05/18 03:59:55;;;;;;;2.30;1.60;;;10.40;99.90;;;;;;5035617;28;20303;-82
2023/05/18 04:02:21;;;;;;;1.67;1.57;;;10.50;99.90;;;;;;5036127;28;20176;-83
2023/05/18 04:04:47;;;;;;;1.60;1.60;;;10.50;99.90;;;;;;5036268;28;20540;-80
2023/05/18 04:07:16;;;;;;;1.77;1.67;;;10.50;99.90;;;;;;5034454;28;20182;-80
2023/05/18 04:09:43;;;;;;;2.73;1.60;;;10.50;99.90;;;;;;5035618;28;20240;-81
2023/05/18 04:12:09;;;;;;;1.77;1.67;;;10.60;99.90;;;;;;5036729;28;20187;-84
2023/05/18 04:14:35;;;;;;;1.33;1.27;;;10.60;99.90;;;;;;5036058;28;20184;-81
2023/05/18 04:17:05;;;;;;;1.73;1.63;;;10.60;99.90;;;;;;5035569;28;20226;-83
2023/05/18 04:19:35;;;;;;;1.60;1.50;;;10.50;99.90;;;;;;5035260;28;20173;-82
2023/05/18 04:22:04;;;;;;;1.60;1.50;;;10.60;99.90;;;;;;5035412;28;20267;-81
2023/05/18 04:24:34;;;;;;;1.60;1.50;;;10.60;99.90;;;;;;5035922;28;20182;-84
2023/05/18 04:27:01;;;;;;;2.30;1.67;;;10.60;99.90;;;;;;5035990;28;20543;-82
2023/05/18 04:29:28;;;;;;;1.70;1.60;;;10.60;99.90;;;;;;5040698;28;20227;-79
2023/05/18 04:31:59;;;;;;;1.90;1.70;;;10.60;99.90;;;;;;5037254;28;20183;-82
2023/05/18 04:34:29;;;;;;;3.57;1.70;;;10.60;99.90;;;;;;5045226;28;20153;-81
2023/05/18 04:36:57;;;;;;;1.87;1.77;;;10.70;99.90;;;;;;5051242;28;20249;-83
2023/05/18 04:39:24;;;;;;;1.60;1.50;;;10.70;99.90;;;;;;5038153;28;20176;-81
2023/05/18 04:41:56;;;;;;;1.70;1.60;;;10.70;99.90;;;;;;5045646;28;20246;-82
2023/05/18 04:44:35;;;;;;;2.77;1.63;;;10.80;99.90;;;;;;5036928;28;20283;-82
2023/05/18 04:47:01;;;;;;;1.70;1.60;;;10.80;99.90;;;;;;5036099;28;20212;-82
2023/05/18 04:49:27;;;;;;;3.63;1.70;;;10.80;99.90;;;;;;5033245;28;20180;-77
2023/05/18 04:51:55;;;;;;;1.33;1.33;;;10.80;99.90;;;;;;5035864;28;20259;-81
2023/05/18 04:54:24;;;;;;;1.33;1.33;;;10.80;99.80;;;;;;5036558;28;20184;-81
2023/05/18 04:56:51;;;;;;;1.60;1.47;;;10.90;99.90;;;;;;5035203;28;20173;-81
2023/05/18 04:59:17;;;;;;;1.20;1.20;;;11.00;99.90;;;;;;5034623;28;20248;-82
2023/05/18 05:01:43;;;;;;;1.97;1.47;;;11.00;99.90;;;;;;5035914;28;20204;-81
2023/05/18 05:04:09;;;;;;;1.40;1.40;;;11.00;99.80;;;;;;5033882;28;20682;-81
2023/05/18 05:06:35;;;;;;;1.30;1.30;;;11.00;99.90;;;;;;5034737;28;20185;-82
2023/05/18 05:09:01;;;;;;;1.50;1.47;;;11.10;99.90;;;;;;5034909;28;20230;-82
2023/05/18 05:11:27;;;;;;;1.53;1.50;;;11.10;99.80;;;;;;5034907;28;20616;-81
2023/05/18 05:13:53;;;;;;;1.20;1.20;;;11.20;99.90;;;;;;5046745;28;20176;-81
2023/05/18 05:16:18;;;;;;;1.40;1.40;;;11.30;99.90;;;;;;5048932;28;20202;-78
2023/05/18 05:18:44;;;;;;;2.50;1.20;;;11.30;99.90;;;;;;5035282;28;20170;-81
2023/05/18 05:21:10;;;;;;;1.17;1.17;;;11.30;99.80;;;;;;5034761;28;20207;-80
2023/05/18 05:23:36;;;;;;;1.53;1.43;;;11.40;99.90;;;;;;5033652;28;20223;-82
2023/05/18 05:26:01;;;;;;;1.40;1.40;;;11.40;99.90;;;;;;5033883;28;20206;-80
2023/05/18 05:28:27;;;;;;;1.50;1.33;;;11.40;99.90;;;;;;5033883;28;20178;-82
2023/05/18 05:30:53;;;;;;;1.37;1.27;;;11.50;99.90;;;;;;5033966;28;20169;-80
2023/05/18 05:33:19;;;;;;;1.10;1.10;;;11.60;99.90;;;;;;5033938;28;20176;-81
2023/05/18 05:35:45;;;;;;;1.83;1.60;;;11.60;99.90;;;;;;5033540;28;20173;-81
2023/05/18 05:38:11;;;;;;;2.73;1.53;;;11.50;99.90;;;;;;5032840;28;20180;-80
2023/05/18 05:40:36;;;;;;;1.33;1.33;;;11.50;99.90;;;;;;5033287;28;20225;-82
2023/05/18 05:43:04;;;;;;;1.40;1.30;;;11.60;99.90;;;;;;5033378;28;20227;-81
2023/05/18 05:45:32;;;;;;;1.20;1.07;;;11.60;99.80;;;;;;5035509;28;20202;-80
2023/05/18 05:47:58;;;;;;;0.80;0.80;;;11.50;99.60;;;;;;5035830;28;20575;-81
2023/05/18 05:50:23;;;;;;;1.00;1.00;;;11.60;99.30;;;;;;5033949;28;20173;-79
2023/05/18 05:52:49;;;;;;;1.00;1.00;;;11.70;99.50;;;;;;5033995;28;20220;-77
2023/05/18 05:55:15;;;;;;;1.10;1.10;;;11.70;99.80;;;;;;5033645;28;20179;-79
2023/05/18 05:57:41;;;;;;;1.00;1.00;;;11.70;99.40;;;;;;5034131;28;20172;-79
2023/05/18 06:00:11;;;;;;;1.00;1.00;;;11.80;99.40;;;;;;5031805;28;20211;-83
2023/05/18 06:02:38;;;;;;;0.80;0.80;;;11.90;99.20;;;;;;5033532;28;20179;-81
2023/05/18 06:05:06;;;;;;;0.83;0.83;;;11.90;99.10;;;;;;5041325;28;20281;-81
2023/05/18 06:07:32;;;;;;;1.03;1.03;;;12.00;99.20;;;;;;5033145;28;20181;-80
2023/05/18 06:09:57;;;;;;;0.90;0.90;;;12.10;99.10;;;;;;5033859;28;20269;-82
2023/05/18 06:12:23;;;;;;;0.93;0.93;;;12.10;98.80;;;;;;5033995;28;20184;-78
2023/05/18 06:14:51;;;;;;;1.00;1.00;;;12.10;99.00;;;;;;5034307;28;20173;-81
2023/05/18 06:17:17;;;;;;;1.10;1.10;;;12.30;99.10;;;;;;5037324;28;20212;-80
2023/05/18 06:19:44;;;;;;;1.13;1.13;;;12.50;99.10;;;;;;5034356;28;20253;-80
2023/05/18 06:22:10;;;;;;;1.00;1.00;;;12.50;98.50;;;;;;5035761;28;20259;-81
2023/05/18 06:24:36;;;;;;;0.90;0.90;;;12.50;98.60;;;;;;5034036;28;20204;-81
2023/05/18 06:27:01;;;;;;;0.80;0.80;;;12.50;98.60;;;;;;5037368;28;20709;-80
2023/05/18 06:29:27;;;;;;;0.97;0.97;;;12.50;98.70;;;;;;5036754;28;20510;-81
2023/05/18 06:31:53;;;;;;;1.00;1.00;;;12.70;98.80;;;;;;5035363;28;20177;-81
2023/05/18 06:34:20;;;;;;;1.00;0.90;;;12.80;98.60;;;;;;5034997;28;20209;-81
2023/05/18 06:36:46;;;;;;;1.07;1.07;;;12.80;98.70;;;;;;5040916;28;20225;-77
2023/05/18 06:39:12;;;;;;;0.70;0.70;;;12.60;98.50;;;;;;5046906;28;20180;-79
2023/05/18 06:41:38;;;;;;;1.10;1.10;;;12.60;98.60;;;;;;5045813;28;20205;-79
2023/05/18 06:44:04;;;;;;;0.90;0.90;;;12.60;98.60;;;;;;5034230;28;20180;-82
2023/05/18 06:46:29;;;;;;;1.10;1.10;;;12.60;98.50;;;;;;5032978;28;20174;-79
2023/05/18 06:48:55;;;;;;;0.70;0.70;;;12.60;98.60;;;;;;5033311;28;20202;-80
2023/05/18 06:51:21;;;;;;;1.10;1.10;;;12.60;98.40;;;;;;5032877;28;20183;-78
2023/05/18 06:53:47;;;;;;;1.57;0.90;;;12.60;98.20;;;;;;5032362;28;20176;-80
2023/05/18 06:56:13;;;;;;;1.10;1.10;;;12.60;98.40;;;;;;5032520;28;20191;-78
2023/05/18 06:58:40;;;;;;;0.90;0.90;;;12.60;98.50;;;;;;5032438;28;20671;-81
2023/05/18 07:01:06;;;;;;;0.83;0.83;;;12.60;98.00;;;;;;5032162;28;20265;-82
2023/05/18 07:03:36;;;;;;;0.90;0.90;;;12.70;98.00;;;;;;5030907;28;20284;-78
2023/05/18 07:06:03;;;;;;;1.23;1.10;;;12.50;98.30;;;;;;5031076;28;20532;-83
2023/05/18 07:08:30;;;;;;;1.00;1.00;;;12.90;98.00;;;;;;5032089;28;20212;-81
2023/05/18 07:10:56;;;;;;;0.97;0.97;;;12.90;97.90;;;;;;5031005;28;20172;-80
2023/05/18 07:13:23;;;;;;;0.77;0.70;;;13.00;98.00;;;;;;5034621;28;21007;-79
2023/05/18 07:15:49;;;;;;;0.97;0.97;;;13.10;98.10;;;;;;5035691;28;20181;-80
2023/05/18 07:18:15;;;;;;;0.80;0.80;;;13.00;98.00;;;;;;5034679;28;20659;-79
2023/05/18 07:20:41;;;;;;;1.33;0.70;;;13.10;98.10;;;;;;5035860;28;20206;-78
2023/05/18 07:23:06;;;;;;;0.80;0.80;;;13.20;98.00;;;;;;5036469;28;20167;-82
2023/05/18 07:25:32;;;;;;;1.10;0.90;;;13.20;97.80;;;;;;5036170;28;20178;-80
2023/05/18 07:27:58;;;;;;;1.70;1.60;;;13.30;97.60;;;;;;5036281;28;20214;-79
2023/05/18 07:30:27;;;;;;;0.90;0.90;;;13.40;98.00;;;;;;5035171;28;20181;-81
2023/05/18 07:32:53;;;;;;;0.70;0.70;;;13.60;98.00;;;;;;5036496;28;20183;-78
2023/05/18 07:35:20;;;;;;;0.93;0.93;;;13.70;97.70;;;;;;5034864;28;20263;-80
2023/05/18 07:37:46;;;;;;;0.90;0.90;;;13.70;97.70;;;;;;5034780;28;20182;-78
2023/05/18 07:40:12;;;;;;;1.40;1.27;;;14.00;97.70;;;;;;5038422;28;20368;-78
2023/05/18 07:42:43;;;;;;;1.00;1.00;;;14.20;97.60;;;;;;5042449;28;20670;-81
2023/05/18 07:45:10;;;;;;;0.80;0.80;;;14.50;97.70;;;;;;5037560;28;20264;-82
2023/05/18 07:47:35;;;;;;;1.13;1.03;;;14.70;97.50;;;;;;5035374;28;20237;-81
2023/05/18 07:50:02;;;;;;;1.00;1.00;;;14.90;97.20;;;;;;5039058;28;20173;-82
2023/05/18 07:52:27;;;;;;;1.00;0.90;;;15.00;97.50;;;;;;5037618;28;20177;-82
2023/05/18 07:54:57;;;;;;;0.93;0.93;;;15.00;97.20;;;;;;5036192;28;20260;-81
2023/05/18 07:57:23;;;;;;;1.00;1.00;;;15.00;97.20;;;;;;5035937;28;20536;-82
2023/05/18 07:59:49;;;;;;;1.20;1.10;;;14.90;96.90;;;;;;5037165;28;20180;-76
2023/05/18 08:02:16;;;;;;;1.37;1.30;;;15.00;97.30;;;;;;5045801;28;20252;-77
2023/05/18 08:04:42;;;;;;;2.53;1.43;;;15.20;97.40;;;;;;5047632;28;20242;-79
2023/05/18 08:07:09;;;;;;;0.83;0.83;;;15.30;97.00;;;;;;5040925;28;20185;-81
2023/05/18 08:09:35;;;;;;;1.43;1.13;;;15.10;96.80;;;;;;5035701;28;20220;-82
2023/05/18 08:12:01;;;;;;;1.07;1.07;;;15.20;96.30;;;;;;5036015;28;20200;-84
2023/05/18 08:14:26;;;;;;;1.20;1.20;;;15.30;96.90;;;;;;5034845;28;20168;-81
2023/05/18 08:16:52;;;;;;;1.33;1.27;;;15.10;97.00;;;;;;5033473;28;20637;-82
2023/05/18 08:19:18;;;;;;;0.83;0.83;;;15.10;97.20;;;;;;5035668;28;20183;-82
2023/05/18 08:21:45;;;;;;;1.17;1.17;;;15.10;96.30;;;;;;5036167;28;20202;-82
2023/05/18 08:24:11;;;;;;;0.90;0.90;;;15.30;96.80;;;;;;5035526;28;20556;-83
2023/05/18 08:26:37;;;;;;;2.23;0.97;;;15.20;96.70;;;;;;5035618;28;20184;-81
2023/05/18 08:29:08;;;;;;;1.00;1.00;;;15.70;97.20;;;;;;5035721;28;20181;-79
2023/05/18 08:31:41;;;;;;;1.30;1.20;;;16.10;96.60;;;;;;5033955;28;20537;-80
2023/05/18 08:34:10;;;;;;;1.80;1.70;;;15.90;96.30;;;;;;5035703;28;20173;-79
2023/05/18 08:36:36;;;;;;;1.30;1.30;;;16.00;96.80;;;;;;5034618;28;20184;-80
2023/05/18 08:39:04;;;;;;;1.40;1.30;;;16.20;98.10;;;;;;5034442;28;20187;-80
2023/05/18 08:41:34;;;;;;;0.90;0.90;;;16.40;97.90;;;;;;5034623;28;20273;-80
2023/05/18 08:44:19;;;;;;;0.90;0.90;;;16.30;96.30;;;;;;5034572;28;20166;-79
2023/05/18 08:46:49;;;;;;;1.13;1.13;;;15.80;96.30;;;;;;5034364;28;20156;-79
2023/05/18 08:49:18;;;;;;;1.30;1.30;;;15.80;96.60;;;;;;5034506;28;20542;-76
2023/05/18 08:51:46;;;;;;;0.90;0.90;;;15.90;97.20;;;;;;5034508;28;20177;-81
2023/05/18 08:54:23;;;;;;;0.97;0.97;;;15.90;96.40;;;;;;5034721;28;20198;-80
2023/05/18 08:56:51;;;;;;;1.07;1.07;;;15.80;96.10;;;;;;5035257;28;20179;-79
2023/05/18 08:59:30;;;;;;;0.50;0.50;;;16.00;96.40;;;;;;5036911;28;20185;-81
2023/05/18 09:01:56;;;;;;;1.00;1.00;;;16.00;95.90;;;;;;5037422;28;20670;-81
2023/05/18 09:04:22;;;;;;;0.83;0.83;;;16.30;96.00;;;;;;5035150;28;20202;-80
2023/05/18 09:06:50;;;;;;;1.00;1.00;;;16.30;96.00;;;;;;5032643;28;20195;-80
2023/05/18 09:09:17;;;;;;;1.00;1.00;;;16.30;96.30;;;;;;5039389;28;20227;-80
2023/05/18 09:11:46;;;;;;;0.70;0.70;;;16.40;96.30;;;;;;5046682;28;20238;-81
2023/05/18 09:14:12;;;;;;;0.90;0.90;;;16.80;95.50;;;;;;5037321;28;20173;-81
2023/05/18 09:16:38;;;;;;;0.87;0.87;;;16.90;95.60;;;;;;5034487;28;20535;-80
2023/05/18 09:19:04;;;;;;;0.83;0.83;;;16.80;95.10;;;;;;5034530;28;20251;-82
2023/05/18 09:21:31;;;;;;;1.37;0.73;;;16.60;95.40;;;;;;5034722;28;20539;-81
2023/05/18 09:23:59;;;;;;;0.90;0.90;;;16.80;95.70;;;;;;5034659;28;20186;-81
2023/05/18 09:26:25;;;;;;;1.70;1.60;;;16.80;95.40;;;;;;5037062;28;20239;-80
2023/05/18 09:28:52;;;;;;;0.83;0.83;;;17.00;95.00;;;;;;5043281;28;20186;-82
2023/05/18 09:31:21;;;;;;;0.80;0.80;;;16.90;94.60;;;;;;5045096;28;20190;-80
2023/05/18 09:33:47;;;;;;;0.70;0.70;;;17.00;94.90;;;;;;5034290;28;20171;-82
2023/05/18 09:36:16;;;;;;;1.00;1.00;;;16.80;94.90;;;;;;5032151;28;20669;-79
2023/05/18 09:38:45;;;;;;;0.50;0.50;;;16.70;95.00;;;;;;5033520;28;20180;-78
2023/05/18 09:41:17;;;;;;;0.80;0.80;;;16.70;94.80;;;;;;5033124;28;20239;-79
2023/05/18 09:43:44;;;;;;;0.70;0.70;;;16.70;94.70;;;;;;5033179;28;20571;-79
2023/05/18 09:46:12;;;;;;;0.70;0.70;;;16.90;94.90;;;;;;5032948;28;20261;-81
2023/05/18 09:48:47;;;;;;;0.80;0.70;;;17.10;94.70;;;;;;5032984;28;20689;-80
2023/05/18 09:51:17;;;;;;;0.60;0.60;;;17.00;94.20;;;;;;5033015;28;20185;-79
2023/05/18 09:54:04;;;;;;;1.07;1.07;;;17.00;94.60;;;;;;5033091;28;20246;-80
2023/05/18 09:56:30;;;;;;;1.27;0.77;;;17.20;95.10;;;;;;5032792;28;20157;-82
2023/05/18 09:58:57;;;;;;;0.80;0.80;;;17.40;94.10;;;;;;5033046;28;20183;-82
2023/05/18 10:01:23;;;;;;;1.00;1.00;;;17.50;94.30;;;;;;5033219;28;20660;-80
2023/05/18 10:03:49;;;;;;;0.80;0.80;;;17.60;94.40;;;;;;5032960;28;20187;-79
2023/05/18 10:06:19;;;;;;;0.77;0.77;;;17.40;94.00;;;;;;5034485;28;20184;-79
2023/05/18 10:08:45;;;;;;;0.70;0.70;;;17.30;94.20;;;;;;5033054;28;20220;-80
2023/05/18 10:11:11;;;;;;;0.50;0.50;;;17.50;94.50;;;;;;5033396;28;20539;-80
2023/05/18 10:13:37;;;;;;;0.80;0.80;;;17.70;94.30;;;;;;5034151;28;20172;-80
2023/05/18 10:16:06;;;;;;;1.87;0.90;;;18.00;94.50;;;;;;5042967;28;20660;-78
2023/05/18 10:18:36;;;;;;;1.03;1.03;;;18.00;93.40;;;;;;5035704;28;20211;-80
2023/05/18 10:21:04;;;;;;;0.70;0.70;;;18.20;93.60;;;;;;5032853;28;20275;-82
2023/05/18 10:23:32;;;;;;;0.70;0.63;;;17.80;93.50;;;;;;5032821;28;20180;-81
2023/05/18 10:25:58;;;;;;;0.70;0.70;;;17.40;94.10;;;;;;5033355;28;20182;-79
2023/05/18 10:28:32;;;;;;;0.90;0.90;;;17.30;93.70;;;;;;5032065;28;20333;-79
2023/05/18 10:30:59;;;;;;;1.00;1.00;;;17.40;94.60;;;;;;5032943;28;20164;-79
2023/05/18 10:33:29;;;;;;;1.10;1.10;;;17.40;94.00;;;;;;5031162;28;20230;-80
2023/05/18 10:35:55;;;;;;;0.70;0.70;;;17.40;94.00;;;;;;5032975;28;20177;-81
2023/05/18 10:38:24;;;;;;;0.83;0.83;;;17.50;94.00;;;;;;5033807;28;20171;-79
2023/05/18 10:40:53;;;;;;;0.97;0.77;;;17.50;94.10;;;;;;5034210;28;20276;-78
2023/05/18 10:43:25;;;;;;;0.97;0.97;;;17.60;94.40;;;;;;5034533;28;20192;-80
2023/05/18 10:45:53;;;;;;;0.83;0.83;;;17.90;94.00;;;;;;5032790;28;20240;-81
2023/05/18 10:48:20;;;;;;;0.90;0.90;;;18.10;94.40;;;;;;5035653;28;20169;-80
2023/05/18 10:50:51;;;;;;;0.97;0.63;;;18.40;93.80;;;;;;5041515;28;20172;-79
2023/05/18 10:53:18;;;;;;;0.90;0.90;;;18.60;93.50;;;;;;5048751;28;20183;-78
2023/05/18 10:55:48;;;;;;;0.80;0.80;;;18.90;93.80;;;;;;5047557;28;20290;-80
2023/05/18 10:58:16;;;;;;;1.20;1.10;;;18.90;93.20;;;;;;5038349;28;20172;-78
2023/05/18 11:01:03;;;;;;;1.60;1.50;;;18.80;92.90;;;;;;5041413;28;20264;-78
2023/05/18 11:03:31;;;;;;;0.90;0.90;;;18.90;93.20;;;;;;5040339;28;20235;-79
2023/05/18 11:06:10;;;;;;;0.90;0.90;;;19.10;93.20;;;;;;5036745;28;20175;-80
2023/05/18 11:08:45;;;;;;;0.87;0.87;;;19.30;93.00;;;;;;5036452;28;20231;-79
2023/05/18 11:11:11;;;;;;;0.67;0.67;;;19.30;92.80;;;;;;5036911;28;20168;-77
2023/05/18 11:13:43;;;;;;;0.80;0.80;;;19.10;91.80;;;;;;5036004;28;20274;-80
2023/05/18 11:16:09;;;;;;;1.80;1.70;;;18.70;92.30;;;;;;5036070;28;20219;-80
2023/05/18 11:18:37;;;;;;;7.33;5.57;;;18.70;92.50;;;;;;5036395;28;20180;-80
2023/05/18 11:21:17;;;;;;;1.67;1.60;;;19.00;92.50;;;;;;5036599;28;20215;-80
2023/05/18 11:23:45;;;;;;;2.20;2.00;;;19.00;92.40;;;;;;5036374;28;20164;-80
2023/05/18 11:26:15;;;;;;;1.57;1.47;;;19.20;92.20;;;;;;5035892;28;20223;-81
2023/05/18 11:28:43;;;;;;;1.00;1.00;;;19.20;92.60;;;;;;5036534;28;20195;-80
2023/05/18 11:31:17;;;;;;;1.03;1.03;;;19.10;93.00;;;;;;5038467;28;20175;-79
2023/05/18 11:33:43;;;;;;;1.40;1.33;;;19.00;92.60;;;;;;5037383;28;20260;-80
2023/05/18 11:36:10;;;;;;;1.20;1.20;;;19.20;92.20;;;;;;5035957;28;20252;-81
2023/05/18 11:39:03;;;;;;;1.20;1.20;;;19.10;92.30;;;;;;5035655;28;20204;-80
2023/05/18 11:41:33;;;;;;;1.07;1.07;;;19.00;93.10;;;;;;5035338;28;20197;-80
2023/05/18 11:44:15;;;;;;;1.00;1.00;;;19.20;92.90;;;;;;5037440;28;20187;-79
2023/05/18 11:47:03;;;;;;;1.03;1.03;;;19.40;93.20;;;;;;5037610;28;20164;-79
2023/05/18 11:49:42;;;;;;;1.20;1.20;;;19.50;93.50;;;;;;5035940;28;20207;-80
2023/05/18 11:52:13;;;;;;;1.00;1.00;;;19.50;93.50;;;;;;5036628;28;20263;-79
2023/05/18 11:54:41;;;;;;;1.10;1.10;;;19.20;94.60;;;;;;5036203;28;20165;-79
2023/05/18 11:57:07;;;;;;;0.80;0.80;;;18.90;93.60;;;;;;5035889;28;20169;-79
2023/05/18 11:59:37;;;;;;;1.00;1.00;;;19.00;93.70;;;;;;5034246;28;20280;-79
2023/05/18 12:02:03;;;;;;;0.80;0.80;;;18.90;94.10;;;;;;5035430;28;20251;-78
2023/05/18 12:04:32;;;;;;;1.70;0.80;;;18.90;92.70;;;;;;5035904;28;20172;-79
2023/05/18 12:07:03;;;;;;;1.00;1.00;;;18.80;92.70;;;;;;5036629;28;20181;-80
2023/05/18 12:09:30;;;;;;;0.87;0.87;;;18.50;92.90;;;;;;5035384;28;20224;-79
2023/05/18 12:11:56;;;;;;;0.80;0.80;;;18.50;93.00;;;;;;5036101;28;20599;-80
2023/05/18 12:14:22;;;;;;;1.00;1.00;;;18.60;92.90;;;;;;5036542;28;20165;-79
2023/05/18 12:16:48;;;;;;;1.13;1.13;;;18.50;93.50;;;;;;5037435;28;20177;-79
2023/05/18 12:19:15;;;;;;;1.20;1.20;;;18.40;94.20;;;;;;5041391;28;20423;-79
2023/05/18 12:21:41;;;;;;;1.80;1.70;;;18.40;94.60;;;;;;5039333;28;20205;-78
2023/05/18 12:24:07;;;;;;;1.60;1.60;;;18.30;94.70;;;;;;5041251;28;20184;-81
2023/05/18 12:26:33;;;;;;;1.37;1.37;;;18.30;95.10;;;;;;5034986;28;20214;-80
2023/05/18 12:29:00;;;;;;;1.20;1.20;;;18.20;95.20;;;;;;5034756;28;20671;-78
2023/05/18 12:31:27;;;;;;;1.63;1.53;;;18.00;95.70;;;;;;5034989;28;20240;-80
2023/05/18 12:33:53;;;;;;;1.20;1.20;;;18.00;96.10;;;;;;5042382;28;20173;-81
2023/05/18 12:36:19;;;;;;;1.30;1.30;;;18.00;96.30;;;;;;5046854;28;20176;-80
2023/05/18 12:38:50;;;;;;;1.30;1.30;;;17.90;96.30;;;;;;5034788;28;20177;-80
2023/05/18 12:41:26;;;;;;;1.43;1.40;;;18.00;96.40;;;;;;5036606;28;20675;-79
2023/05/18 12:43:53;;;;;;;1.37;1.33;;;18.10;96.50;;;;;;5035265;28;20191;-80
2023/05/18 12:46:23;;;;;;;1.13;1.13;;;18.20;96.60;;;;;;5037918;28;20180;-77
2023/05/18 12:48:57;;;;;;;1.50;1.50;;;18.20;97.30;;;;;;5043638;28;20234;-79
2023/05/18 12:51:29;;;;;;;1.60;1.50;;;18.30;96.60;;;;;;5035154;28;20176;-80
2023/05/18 12:53:55;;;;;;;1.33;1.33;;;18.30;96.20;;;;;;5034283;28;20173;-80